Time;durP1;ratioP1;P1;durP2;ratioP2;P2;SDS_P1;SDS_P2;PMS_P1;PMS_P2;Temp;Humidity;BMP_temperature;BMP_pressure;BME280_temperature;BME280_humidity;BME280_pressure;Samples;Min_cycle;Max_cycle;Signal;HPM_P1;HPM_P2
2022/10/23 00:01:11;;;;;;;8.05;2.88;;;13.10;99.90;;;;;;5092831;28;20031;-52
2022/10/23 00:03:36;;;;;;;13.15;3.15;;;13.10;99.90;;;;;;5093687;28;20020;-54
2022/10/23 00:06:03;;;;;;;9.55;3.10;;;13.00;99.90;;;;;;5093905;28;20065;-51
2022/10/23 00:08:29;;;;;;;6.80;2.67;;;13.00;99.90;;;;;;5093755;28;20103;-50
2022/10/23 00:10:55;;;;;;;8.32;2.97;;;13.00;99.90;;;;;;5093836;28;20059;-54
2022/10/23 00:13:20;;;;;;;12.20;3.08;;;12.90;99.90;;;;;;5093509;28;20560;-56
2022/10/23 00:15:45;;;;;;;6.43;2.50;;;12.80;99.90;;;;;;5091816;28;20531;-53
2022/10/23 00:18:11;;;;;;;7.20;2.70;;;12.80;99.90;;;;;;5093681;28;20098;-52
2022/10/23 00:20:37;;;;;;;6.70;4.18;;;12.70;99.90;;;;;;5093612;28;20035;-57
2022/10/23 00:23:02;;;;;;;8.90;2.78;;;12.70;99.90;;;;;;5093286;28;20039;-52
2022/10/23 00:25:28;;;;;;;8.25;2.65;;;12.60;99.90;;;;;;5093433;28;20518;-53
2022/10/23 00:27:53;;;;;;;4.80;2.85;;;12.60;99.90;;;;;;5093414;28;20054;-57
2022/10/23 00:30:19;;;;;;;5.38;2.78;;;12.50;99.90;;;;;;5093502;28;20015;-50
2022/10/23 00:32:44;;;;;;;6.03;3.05;;;12.40;99.90;;;;;;5093647;28;20047;-54
2022/10/23 00:35:10;;;;;;;4.13;2.80;;;12.40;99.90;;;;;;5093156;28;20092;-54
2022/10/23 00:37:35;;;;;;;13.02;4.05;;;12.40;99.90;;;;;;5093757;28;20032;-56
2022/10/23 00:40:02;;;;;;;9.15;3.70;;;12.40;99.90;;;;;;5094861;28;20028;-47
2022/10/23 00:42:28;;;;;;;7.65;3.38;;;12.40;99.90;;;;;;5093157;28;20046;-52
2022/10/23 00:44:53;;;;;;;19.38;4.60;;;12.40;99.90;;;;;;5092784;28;20028;-51
2022/10/23 00:47:19;;;;;;;10.55;3.38;;;12.50;99.90;;;;;;5093140;28;20028;-49
2022/10/23 00:49:44;;;;;;;6.05;3.25;;;12.50;99.90;;;;;;5092928;28;20142;-51
2022/10/23 00:52:11;;;;;;;8.77;3.78;;;12.50;99.90;;;;;;5092583;28;20058;-53
2022/10/23 00:54:41;;;;;;;11.18;3.70;;;12.50;99.90;;;;;;5092752;28;20395;-54
2022/10/23 00:57:12;;;;;;;6.03;3.67;;;12.50;99.90;;;;;;5092874;28;20085;-53
2022/10/23 00:59:40;;;;;;;9.77;4.60;;;12.60;99.90;;;;;;5092842;28;20031;-55
2022/10/23 01:02:05;;;;;;;10.23;3.72;;;12.50;99.90;;;;;;5092473;28;20027;-49
2022/10/23 01:04:31;;;;;;;19.05;4.07;;;12.50;99.90;;;;;;5092434;28;20028;-53
2022/10/23 01:07:01;;;;;;;7.57;3.67;;;12.50;99.90;;;;;;5092545;28;20071;-57
2022/10/23 01:09:40;;;;;;;11.40;3.90;;;12.50;99.90;;;;;;5092571;28;20522;-56
2022/10/23 01:12:06;;;;;;;8.95;3.45;;;12.40;99.90;;;;;;5092393;28;20476;-54
2022/10/23 01:14:53;;;;;;;12.88;4.22;;;12.40;99.90;;;;;;5092198;28;20100;-53
2022/10/23 01:17:24;;;;;;;10.18;3.80;;;12.40;99.90;;;;;;5091271;28;20058;-50
2022/10/23 01:19:54;;;;;;;7.38;3.65;;;12.40;99.90;;;;;;5091858;28;20039;-56
2022/10/23 01:23:02;;;;;;;10.00;4.05;;;12.30;99.90;;;;;;5092294;28;20400;-55
2022/10/23 01:26:11;;;;;;;10.80;3.78;;;12.20;99.90;;;;;;5092141;28;20032;-54
2022/10/23 01:28:47;;;;;;;7.70;3.55;;;12.10;99.90;;;;;;5092067;28;20499;-52
2022/10/23 01:31:17;;;;;;;;;;;12.10;99.90;;;;;;5093426;28;20479;-55
2022/10/23 01:33:50;;;;;;;12.52;3.75;;;12.10;99.90;;;;;;5091888;28;19904;-51
2022/10/23 01:36:19;;;;;;;7.22;4.18;;;12.00;99.90;;;;;;5091987;28;20020;-54
2022/10/23 01:38:55;;;;;;;7.75;4.05;;;12.00;99.90;;;;;;5092096;28;20365;-54
2022/10/23 01:41:28;;;;;;;9.68;4.38;;;12.10;99.90;;;;;;5092172;28;20440;-52
2022/10/23 01:44:28;;;;;;;8.70;4.28;;;12.00;99.90;;;;;;5091648;28;20123;-54
2022/10/23 01:46:56;;;;;;;8.18;3.90;;;12.10;99.90;;;;;;5090403;28;20032;-58
2022/10/23 01:49:23;;;;;;;6.07;3.75;;;12.10;99.90;;;;;;5092115;28;20032;-53
2022/10/23 01:51:53;;;;;;;7.75;3.88;;;12.10;99.90;;;;;;5091639;28;20512;-53
2022/10/23 01:54:23;;;;;;;11.23;3.92;;;12.00;99.90;;;;;;5091623;28;20072;-51
2022/10/23 01:56:51;;;;;;;12.82;3.97;;;12.00;99.90;;;;;;5091562;28;20297;-55
2022/10/23 01:59:30;;;;;;;7.22;3.88;;;12.00;99.90;;;;;;5091709;28;20483;-55
2022/10/23 02:01:59;;;;;;;7.05;3.25;;;12.10;99.90;;;;;;5091512;28;20028;-53
2022/10/23 02:04:32;;;;;;;8.77;3.85;;;12.10;99.90;;;;;;5091498;28;20544;-55
2022/10/23 02:06:58;;;;;;;4.18;3.17;;;12.00;99.90;;;;;;5091587;28;20039;-57
2022/10/23 02:09:24;;;;;;;9.10;3.45;;;12.00;99.90;;;;;;5091676;28;20028;-56
2022/10/23 02:12:13;;;;;;;8.60;3.00;;;12.00;99.90;;;;;;5091638;28;20515;-51
2022/10/23 02:15:01;;;;;;;8.40;3.38;;;11.90;99.90;;;;;;5091353;28;20051;-56
2022/10/23 02:17:43;;;;;;;12.02;3.55;;;11.90;99.90;;;;;;5091767;28;20059;-58
2022/10/23 02:20:16;;;;;;;7.38;3.70;;;12.00;99.90;;;;;;5090280;28;20049;-56
2022/10/23 02:22:51;;;;;;;6.43;3.45;;;12.00;99.90;;;;;;5091489;28;20120;-53
2022/10/23 02:25:21;;;;;;;10.68;3.75;;;12.00;99.90;;;;;;5091315;28;20543;-53
2022/10/23 02:27:52;;;;;;;10.88;3.28;;;12.00;99.90;;;;;;5091539;28;20028;-57
2022/10/23 02:30:18;;;;;;;11.95;3.58;;;12.00;99.90;;;;;;5091493;28;20023;-55
2022/10/23 02:32:48;;;;;;;8.98;3.40;;;12.00;99.90;;;;;;5095213;28;20107;-56
2022/10/23 02:35:14;;;;;;;7.43;3.00;;;12.00;99.90;;;;;;5095802;28;20067;-59
2022/10/23 02:37:39;;;;;;;5.72;3.30;;;12.00;99.90;;;;;;5095507;28;20024;-58
2022/10/23 02:40:07;;;;;;;12.68;3.50;;;12.00;99.90;;;;;;5095603;28;20078;-51
2022/10/23 02:42:39;;;;;;;8.38;3.28;;;12.00;99.90;;;;;;5095161;28;20074;-52
2022/10/23 02:45:18;;;;;;;9.63;3.13;;;12.00;99.90;;;;;;5095322;28;20476;-53
2022/10/23 02:48:11;;;;;;;10.10;4.35;;;11.90;99.90;;;;;;5095775;28;20021;-52
2022/10/23 02:51:06;;;;;;;12.18;3.95;;;11.80;99.90;;;;;;5095244;28;20020;-54
2022/10/23 02:53:47;;;;;;;4.90;3.35;;;11.80;99.90;;;;;;5095087;28;20439;-53
2022/10/23 02:56:54;;;;;;;20.27;5.40;;;11.80;99.90;;;;;;5094951;28;20456;-54
2022/10/23 02:59:30;;;;;;;4.50;3.47;;;11.70;99.90;;;;;;5095178;28;20487;-51
2022/10/23 03:02:24;;;;;;;9.75;3.13;;;11.70;99.90;;;;;;5095097;28;20028;-49
2022/10/23 03:04:51;;;;;;;5.97;3.42;;;11.80;99.90;;;;;;5094749;28;20540;-55
2022/10/23 03:07:18;;;;;;;13.77;3.13;;;11.70;99.90;;;;;;5095052;28;20490;-57
2022/10/23 03:09:44;;;;;;;5.15;2.95;;;11.70;99.90;;;;;;5095235;28;20101;-54
2022/10/23 03:12:09;;;;;;;12.32;3.78;;;11.70;99.90;;;;;;5093467;28;20028;-56
2022/10/23 03:14:35;;;;;;;7.97;3.05;;;11.70;99.90;;;;;;5094735;28;20034;-53
2022/10/23 03:17:00;;;;;;;6.55;3.10;;;11.70;99.90;;;;;;5094507;28;20036;-49
2022/10/23 03:19:26;;;;;;;10.38;3.40;;;11.70;99.90;;;;;;5094788;28;20052;-54
2022/10/23 03:21:51;;;;;;;8.80;3.33;;;11.70;99.90;;;;;;5094465;28;20107;-57
2022/10/23 03:24:17;;;;;;;7.07;2.55;;;11.70;99.90;;;;;;5094428;28;20466;-54
2022/10/23 03:26:42;;;;;;;6.15;2.97;;;11.60;99.90;;;;;;5093361;28;20391;-55
2022/10/23 03:29:08;;;;;;;3.20;2.60;;;11.70;99.90;;;;;;5094652;28;20167;-56
2022/10/23 03:31:33;;;;;;;5.10;2.67;;;11.60;99.90;;;;;;5095130;28;20056;-54
2022/10/23 03:33:59;;;;;;;14.75;3.25;;;11.60;99.90;;;;;;5094253;28;20032;-54
2022/10/23 03:36:24;;;;;;;5.57;3.53;;;11.60;99.90;;;;;;5094211;28;20024;-54
2022/10/23 03:38:50;;;;;;;12.32;3.67;;;11.60;99.90;;;;;;5094454;28;20032;-54
2022/10/23 03:41:16;;;;;;;10.65;3.42;;;11.60;99.90;;;;;;5094017;28;20024;-55
2022/10/23 03:43:41;;;;;;;6.75;3.25;;;11.60;99.90;;;;;;5093690;28;20502;-50
2022/10/23 03:46:11;;;;;;;8.43;3.97;;;11.60;99.90;;;;;;5093988;28;20020;-51
2022/10/23 03:48:37;;;;;;;6.20;3.30;;;11.60;99.90;;;;;;5094265;28;20012;-50
2022/10/23 03:51:06;;;;;;;6.43;3.38;;;11.50;99.90;;;;;;5094197;28;20020;-56
2022/10/23 03:53:31;;;;;;;8.55;3.35;;;11.50;99.90;;;;;;5093839;28;20032;-55
2022/10/23 03:55:57;;;;;;;12.50;3.55;;;11.40;99.90;;;;;;5093942;28;20442;-50
2022/10/23 03:58:22;;;;;;;6.05;3.33;;;11.40;99.90;;;;;;5094039;28;20134;-51
2022/10/23 04:00:48;;;;;;;3.95;2.55;;;11.40;99.90;;;;;;5093920;28;20484;-53
2022/10/23 04:03:13;;;;;;;12.13;4.18;;;11.40;99.90;;;;;;5093481;28;20035;-57
2022/10/23 04:05:40;;;;;;;7.35;3.80;;;11.40;99.90;;;;;;5093797;28;20020;-49
2022/10/23 04:08:06;;;;;;;9.93;3.17;;;11.30;99.90;;;;;;5093868;28;20028;-51
2022/10/23 04:10:32;;;;;;;8.45;3.38;;;11.30;99.90;;;;;;5093708;28;20031;-47
2022/10/23 04:12:57;;;;;;;10.65;3.72;;;11.30;99.90;;;;;;5093442;28;20099;-51
2022/10/23 04:15:22;;;;;;;12.30;3.42;;;11.30;99.90;;;;;;5092906;28;20082;-51
2022/10/23 04:17:48;;;;;;;13.25;3.90;;;11.30;99.90;;;;;;5093659;28;20028;-50
2022/10/23 04:20:14;;;;;;;6.25;3.22;;;11.20;99.90;;;;;;5093684;28;20070;-49
2022/10/23 04:22:39;;;;;;;5.47;3.10;;;11.20;99.90;;;;;;5093249;28;20055;-54
2022/10/23 04:25:05;;;;;;;3.65;2.90;;;11.20;99.90;;;;;;5093259;28;20453;-55
2022/10/23 04:27:30;;;;;;;14.43;3.67;;;11.20;99.90;;;;;;5093414;28;20426;-53
2022/10/23 04:29:56;;;;;;;4.93;3.20;;;11.20;99.90;;;;;;5093443;28;20020;-50
2022/10/23 04:32:21;;;;;;;8.93;2.92;;;11.20;99.90;;;;;;5092999;28;20100;-52
2022/10/23 04:34:47;;;;;;;7.00;3.85;;;11.20;99.90;;;;;;5091963;28;20126;-54
2022/10/23 04:37:12;;;;;;;13.55;4.20;;;11.20;99.90;;;;;;5093156;28;20020;-50
2022/10/23 04:39:38;;;;;;;13.07;4.00;;;11.20;99.90;;;;;;5093157;28;20073;-54
2022/10/23 04:42:03;;;;;;;12.48;3.97;;;11.20;99.90;;;;;;5092740;28;20020;-52
2022/10/23 04:44:29;;;;;;;9.80;3.50;;;11.20;99.90;;;;;;5093080;28;20028;-55
2022/10/23 04:46:54;;;;;;;6.82;3.00;;;11.20;99.90;;;;;;5093413;28;20020;-55
2022/10/23 04:49:20;;;;;;;6.43;3.13;;;11.20;99.90;;;;;;5093270;28;20028;-57
2022/10/23 04:51:45;;;;;;;7.90;4.53;;;11.20;99.90;;;;;;5092848;28;20502;-53
2022/10/23 04:54:11;;;;;;;13.38;3.90;;;11.20;99.90;;;;;;5090420;28;20030;-54
2022/10/23 04:56:36;;;;;;;10.27;3.90;;;11.10;99.90;;;;;;5092737;28;20115;-56
2022/10/23 04:59:02;;;;;;;10.05;3.70;;;11.10;99.90;;;;;;5092742;28;20097;-51
2022/10/23 05:01:28;;;;;;;8.70;3.83;;;11.10;99.90;;;;;;5092778;28;20060;-55
2022/10/23 05:03:55;;;;;;;9.63;3.50;;;11.10;99.90;;;;;;5092397;28;20519;-55
2022/10/23 05:06:21;;;;;;;11.13;3.53;;;11.10;99.90;;;;;;5092530;28;20111;-58
2022/10/23 05:08:46;;;;;;;9.43;3.20;;;11.10;99.90;;;;;;5092461;28;20143;-51
2022/10/23 05:11:12;;;;;;;7.32;3.58;;;11.00;99.90;;;;;;5092531;28;20172;-53
2022/10/23 05:13:37;;;;;;;9.45;3.67;;;11.00;99.90;;;;;;5092168;28;20095;-55
2022/10/23 05:16:03;;;;;;;9.48;4.18;;;11.00;99.90;;;;;;5096404;22;20051;-45
2022/10/23 05:18:33;;;;;;;7.72;4.03;;;11.00;99.90;;;;;;5072566;28;20032;-45
2022/10/23 05:21:13;;;;;;;16.13;4.05;;;11.00;99.90;;;;;;5072297;28;20480;-41
2022/10/23 05:23:40;;;;;;;12.25;4.35;;;11.00;99.90;;;;;;5071610;28;20037;-45
2022/10/23 05:26:06;;;;;;;7.30;3.78;;;11.10;99.90;;;;;;5072081;28;20017;-43
2022/10/23 05:28:31;;;;;;;13.38;3.80;;;11.10;99.90;;;;;;5087735;28;20119;-47
2022/10/23 05:30:59;;;;;;;11.23;3.72;;;11.10;99.90;;;;;;5072083;28;20103;-41
2022/10/23 05:33:25;;;;;;;8.73;3.78;;;11.10;99.90;;;;;;5071719;28;20025;-44
2022/10/23 05:35:51;;;;;;;5.43;3.45;;;11.10;99.90;;;;;;5071874;28;20458;-46
2022/10/23 05:38:17;;;;;;;12.57;3.75;;;11.00;99.90;;;;;;5071672;28;20032;-46
2022/10/23 05:40:43;;;;;;;12.00;3.60;;;11.00;99.90;;;;;;5071874;28;20051;-47
2022/10/23 05:43:08;;;;;;;9.80;3.38;;;10.90;99.90;;;;;;5070229;28;20048;-44
2022/10/23 05:45:34;;;;;;;8.35;3.33;;;10.80;99.90;;;;;;5071952;28;20028;-43
2022/10/23 05:47:59;;;;;;;10.63;3.45;;;10.80;99.90;;;;;;5087966;28;20020;-42
2022/10/23 05:50:25;;;;;;;9.43;4.13;;;10.70;99.90;;;;;;5087466;28;20044;-48
2022/10/23 05:52:50;;;;;;;11.35;3.47;;;10.70;99.90;;;;;;5071304;28;20031;-46
2022/10/23 05:55:16;;;;;;;7.60;4.25;;;10.70;99.90;;;;;;5071634;28;20058;-45
2022/10/23 05:57:42;;;;;;;11.15;4.15;;;10.70;99.90;;;;;;5071617;28;20031;-46
2022/10/23 06:00:08;;;;;;;13.88;3.53;;;10.70;99.90;;;;;;5071696;28;20025;-44
2022/10/23 06:02:34;;;;;;;8.45;3.67;;;10.80;99.90;;;;;;5071289;28;20047;-42
2022/10/23 06:04:59;;;;;;;6.18;3.35;;;10.80;99.90;;;;;;5071225;28;20020;-42
2022/10/23 06:07:26;;;;;;;6.82;3.38;;;10.80;99.90;;;;;;5071593;28;20092;-45
2022/10/23 06:09:51;;;;;;;11.73;3.45;;;10.80;99.90;;;;;;5071497;28;20029;-44
2022/10/23 06:12:18;;;;;;;4.53;2.95;;;10.90;99.90;;;;;;5071578;28;20425;-44
2022/10/23 06:14:44;;;;;;;7.40;3.65;;;10.90;99.90;;;;;;5070737;28;20035;-41
2022/10/23 06:17:09;;;;;;;11.52;4.15;;;11.00;99.90;;;;;;5071291;28;20440;-43
2022/10/23 06:19:35;;;;;;;8.95;4.00;;;11.00;99.90;;;;;;5071154;28;20459;-45
2022/10/23 06:22:01;;;;;;;14.25;4.03;;;11.00;99.90;;;;;;5070822;28;20035;-46
2022/10/23 06:24:26;;;;;;;8.75;3.60;;;11.00;99.90;;;;;;5071817;28;20059;-43
2022/10/23 06:26:52;;;;;;;8.60;3.60;;;11.00;99.90;;;;;;5071423;28;20037;-45
2022/10/23 06:29:17;;;;;;;9.80;3.80;;;11.00;99.90;;;;;;5071921;28;20056;-44
2022/10/23 06:31:43;;;;;;;4.65;3.47;;;11.00;99.90;;;;;;5071616;28;20482;-44
2022/10/23 06:34:10;;;;;;;10.73;4.10;;;11.00;99.90;;;;;;5069894;28;20027;-45
2022/10/23 06:36:36;;;;;;;10.75;5.05;;;11.00;99.90;;;;;;5071241;28;20028;-47
2022/10/23 06:39:03;;;;;;;4.28;3.60;;;11.10;99.90;;;;;;5071517;28;20024;-49
2022/10/23 06:41:28;;;;;;;12.75;4.00;;;11.10;99.90;;;;;;5072090;28;20025;-45
2022/10/23 06:43:54;;;;;;;10.68;3.42;;;11.10;99.90;;;;;;5070763;28;20020;-44
2022/10/23 06:46:20;;;;;;;7.35;3.42;;;11.10;99.90;;;;;;5071225;28;20580;-47
2022/10/23 06:48:46;;;;;;;5.10;3.33;;;11.10;99.90;;;;;;5071271;28;20103;-47
2022/10/23 06:51:15;;;;;;;9.35;3.75;;;11.20;99.90;;;;;;5071298;28;20096;-46
2022/10/23 06:53:42;;;;;;;12.90;3.85;;;11.20;99.90;;;;;;5071190;28;20036;-46
2022/10/23 06:56:08;;;;;;;9.27;3.25;;;11.30;99.90;;;;;;5071335;28;20032;-45
2022/10/23 06:58:36;;;;;;;4.80;3.28;;;11.30;99.90;;;;;;5071233;28;20032;-47
2022/10/23 07:01:04;;;;;;;9.82;4.28;;;11.30;99.90;;;;;;5071247;28;20024;-41
2022/10/23 07:03:30;;;;;;;13.55;4.60;;;11.30;99.90;;;;;;5069680;28;20032;-43
2022/10/23 07:06:00;;;;;;;7.18;3.45;;;11.40;99.90;;;;;;5071703;28;20034;-39
2022/10/23 07:08:26;;;;;;;6.10;3.40;;;11.40;99.90;;;;;;5071287;28;20029;-43
2022/10/23 07:10:51;;;;;;;13.80;3.95;;;11.50;99.90;;;;;;5071012;28;20021;-44
2022/10/23 07:13:17;;;;;;;9.55;4.47;;;11.50;99.90;;;;;;5075273;28;20361;-46
2022/10/23 07:15:43;;;;;;;13.73;4.00;;;11.50;99.90;;;;;;5072622;28;20092;-42
2022/10/23 07:18:13;;;;;;;6.95;4.00;;;11.50;99.90;;;;;;5080319;28;20050;-47
2022/10/23 07:20:39;;;;;;;6.35;2.95;;;11.60;99.90;;;;;;5080371;28;20111;-43
2022/10/23 07:23:05;;;;;;;9.25;4.00;;;11.60;99.90;;;;;;5077319;28;20092;-51
2022/10/23 07:25:32;;;;;;;6.53;3.53;;;11.70;99.90;;;;;;5074910;28;20104;-45
2022/10/23 07:27:58;;;;;;;12.00;4.03;;;11.70;99.90;;;;;;5073368;28;20032;-45
2022/10/23 07:30:23;;;;;;;4.97;3.50;;;11.80;99.90;;;;;;5074865;28;20027;-47
2022/10/23 07:32:49;;;;;;;6.05;3.40;;;11.90;99.90;;;;;;5074216;28;20032;-48
2022/10/23 07:35:15;;;;;;;9.35;3.70;;;12.00;99.90;;;;;;5074328;28;20032;-44
2022/10/23 07:37:41;;;;;;;11.23;3.47;;;12.00;99.90;;;;;;5074235;28;20484;-44
2022/10/23 07:40:07;;;;;;;6.68;3.22;;;12.10;99.90;;;;;;5072813;28;20044;-46
2022/10/23 07:42:33;;;;;;;3.45;3.13;;;12.20;99.90;;;;;;5074561;28;20111;-45
2022/10/23 07:44:59;;;;;;;5.70;2.90;;;12.20;99.90;;;;;;5072747;28;20043;-44
2022/10/23 07:47:25;;;;;;;9.35;4.03;;;12.30;99.90;;;;;;5072856;28;20024;-52
2022/10/23 07:49:51;;;;;;;11.50;3.55;;;12.40;99.90;;;;;;5073940;28;20016;-49
2022/10/23 07:52:16;;;;;;;4.18;2.80;;;12.50;99.90;;;;;;5073607;28;20032;-47
2022/10/23 07:54:42;;;;;;;6.00;3.15;;;12.60;99.90;;;;;;5073821;28;20078;-46
2022/10/23 07:57:10;;;;;;;8.02;3.00;;;12.60;99.90;;;;;;5073809;28;20491;-48
2022/10/23 07:59:36;;;;;;;5.20;2.83;;;12.70;99.90;;;;;;5074390;28;20028;-43
2022/10/23 08:02:02;;;;;;;10.25;3.40;;;12.80;99.90;;;;;;5073643;28;20028;-47
2022/10/23 08:04:27;;;;;;;5.05;2.35;;;12.90;99.90;;;;;;5073859;28;20093;-57
2022/10/23 08:06:54;;;;;;;7.10;2.80;;;13.10;99.90;;;;;;5073930;28;20021;-46
2022/10/23 08:09:20;;;;;;;3.22;2.88;;;13.30;99.90;;;;;;5073522;28;20031;-45
2022/10/23 08:11:46;;;;;;;5.80;2.13;;;13.40;99.90;;;;;;5073537;28;20021;-42
2022/10/23 08:14:12;;;;;;;4.57;3.30;;;13.50;99.90;;;;;;5073407;28;20512;-49
2022/10/23 08:16:38;;;;;;;10.93;4.00;;;13.60;99.90;;;;;;5072883;28;20056;-42
2022/10/23 08:19:05;;;;;;;9.98;3.72;;;13.60;99.90;;;;;;5073417;28;20491;-43
2022/10/23 08:21:31;;;;;;;14.75;3.30;;;13.60;99.90;;;;;;5073152;28;20078;-47
2022/10/23 08:23:58;;;;;;;6.95;2.92;;;13.60;99.90;;;;;;5073121;28;20059;-48
2022/10/23 08:26:25;;;;;;;5.60;2.63;;;13.60;99.90;;;;;;5073008;28;20559;-41
2022/10/23 08:28:52;;;;;;;6.22;3.05;;;13.50;99.90;;;;;;5073151;28;20021;-53
2022/10/23 08:31:19;;;;;;;3.10;2.80;;;13.50;99.90;;;;;;5072975;28;20028;-44
2022/10/23 08:33:45;;;;;;;3.83;2.65;;;13.60;99.90;;;;;;5072913;28;20112;-46
2022/10/23 08:36:19;;;;;;;7.90;2.90;;;13.70;99.90;;;;;;5073074;28;20457;-47
2022/10/23 08:38:45;;;;;;;10.38;3.22;;;13.80;99.90;;;;;;5073232;28;20032;-48
2022/10/23 08:41:35;;;;;;;6.32;2.95;;;13.90;99.90;;;;;;5073412;28;20103;-43
2022/10/23 08:44:11;;;;;;;4.28;2.33;;;14.00;99.90;;;;;;5063782;28;20500;-43
2022/10/23 08:46:43;;;;;;;12.38;2.47;;;14.10;99.90;;;;;;5073646;28;20035;-47
2022/10/23 08:49:17;;;;;;;6.20;2.95;;;14.00;99.90;;;;;;5073957;28;20056;-44
2022/10/23 08:51:49;;;;;;;13.57;2.80;;;14.00;99.90;;;;;;5073714;28;20048;-40
2022/10/23 08:54:23;;;;;;;6.05;2.50;;;13.80;99.90;;;;;;5073899;28;20036;-49
2022/10/23 08:57:02;;;;;;;7.60;2.70;;;13.90;99.90;;;;;;5073063;28;20033;-47
2022/10/23 08:59:47;;;;;;;8.30;3.08;;;14.10;99.90;;;;;;5073249;28;20025;-45
2022/10/23 09:02:19;;;;;;;4.57;2.40;;;14.20;99.90;;;;;;5071280;28;20510;-48
2022/10/23 09:04:47;;;;;;;8.88;2.40;;;14.30;99.90;;;;;;5072405;28;20025;-51
2022/10/23 09:07:31;;;;;;;6.22;3.17;;;14.20;99.90;;;;;;5072574;28;20028;-49
2022/10/23 09:10:02;;;;;;;4.38;2.40;;;14.20;99.90;;;;;;5073395;28;20025;-44
2022/10/23 09:12:29;;;;;;;3.35;2.63;;;14.20;99.90;;;;;;5072081;28;20463;-39
2022/10/23 09:15:04;;;;;;;9.07;2.63;;;14.30;99.90;;;;;;5071751;28;20046;-50
2022/10/23 09:17:37;;;;;;;6.20;3.10;;;14.20;99.90;;;;;;5072474;28;20033;-51
2022/10/23 09:20:24;;;;;;;6.47;2.58;;;14.20;99.90;;;;;;5071573;28;20263;-47
2022/10/23 09:22:59;;;;;;;8.00;3.10;;;14.40;99.90;;;;;;5071973;28;20040;-46
2022/10/23 09:25:35;;;;;;;5.20;2.50;;;14.60;99.90;;;;;;5072178;28;20501;-46
2022/10/23 09:28:01;;;;;;;4.88;2.95;;;14.80;99.90;;;;;;5072219;28;20039;-50
2022/10/23 09:30:27;;;;;;;2.75;2.13;;;14.90;99.90;;;;;;5053963;28;20048;-42
2022/10/23 09:32:52;;;;;;;3.80;2.22;;;15.00;99.90;;;;;;5071621;28;20040;-52
2022/10/23 09:35:26;;;;;;;3.00;2.15;;;15.30;99.90;;;;;;5071792;28;20058;-43
2022/10/23 09:37:53;;;;;;;8.85;2.40;;;15.60;99.90;;;;;;5069966;28;20506;-46
2022/10/23 09:40:40;;;;;;;4.80;2.42;;;15.60;99.90;;;;;;5069981;28;20043;-48
2022/10/23 09:43:20;;;;;;;11.10;2.70;;;15.50;99.90;;;;;;5071114;28;20028;-42
2022/10/23 09:46:05;;;;;;;39.58;19.90;;;15.20;99.90;;;;;;5071280;28;20342;-46
2022/10/23 09:48:31;;;;;;;4.78;3.47;;;15.10;99.90;;;;;;5071495;28;20070;-45
2022/10/23 09:51:03;;;;;;;8.57;2.58;;;15.00;99.90;;;;;;5072100;28;20033;-45
2022/10/23 09:53:51;;;;;;;5.65;3.00;;;14.90;99.90;;;;;;5072605;28;20028;-54
2022/10/23 09:56:22;;;;;;;9.00;2.58;;;14.90;99.90;;;;;;5072127;28;20732;-43
2022/10/23 09:59:04;;;;;;;7.63;2.55;;;14.90;99.90;;;;;;5071882;28;20032;-47
2022/10/23 10:01:35;;;;;;;7.53;2.80;;;14.80;99.90;;;;;;5072116;28;20029;-44
2022/10/23 10:04:01;;;;;;;9.57;2.90;;;14.90;99.90;;;;;;5072198;28;20029;-48
2022/10/23 10:06:31;;;;;;;4.05;2.38;;;14.80;99.90;;;;;;5073023;28;20107;-51
2022/10/23 10:09:01;;;;;;;4.40;2.33;;;14.90;99.90;;;;;;5072330;28;20025;-46
2022/10/23 10:11:33;;;;;;;3.15;2.15;;;14.80;99.90;;;;;;5070734;28;20025;-45
2022/10/23 10:14:05;;;;;;;7.55;2.63;;;14.80;99.90;;;;;;5070899;28;20415;-45
2022/10/23 10:16:54;;;;;;;2.58;2.35;;;14.90;99.90;;;;;;5071714;28;20028;-48
2022/10/23 10:19:43;;;;;;;5.55;2.47;;;14.90;99.90;;;;;;5070630;28;20032;-43
2022/10/23 10:22:27;;;;;;;9.20;2.80;;;14.90;99.90;;;;;;5071805;28;20021;-46
2022/10/23 10:25:02;;;;;;;2.83;2.25;;;14.90;99.90;;;;;;5071916;28;20032;-44
2022/10/23 10:27:33;;;;;;;12.23;2.67;;;14.90;99.90;;;;;;5071939;28;20104;-44
2022/10/23 10:30:14;;;;;;;15.00;2.72;;;14.80;99.90;;;;;;5072136;28;20027;-43
2022/10/23 10:32:58;;;;;;;2.95;2.10;;;14.70;99.90;;;;;;5071373;28;20447;-46
2022/10/23 10:35:41;;;;;;;5.35;2.60;;;14.60;99.90;;;;;;5067267;28;20047;-45
2022/10/23 10:38:41;;;;;;;5.47;2.53;;;14.60;99.90;;;;;;5052026;28;20095;-43
2022/10/23 10:41:40;;;;;;;6.40;2.80;;;14.60;99.90;;;;;;5051508;28;20527;-42
2022/10/23 10:44:29;;;;;;;8.77;2.35;;;14.60;99.90;;;;;;5050839;28;20048;-42
2022/10/23 10:47:02;;;;;;;2.45;2.17;;;14.70;99.90;;;;;;5066181;28;20456;-44
2022/10/23 10:49:36;;;;;;;4.53;2.28;;;14.70;99.90;;;;;;5062026;28;20021;-41
2022/10/23 10:52:20;;;;;;;7.28;2.42;;;14.70;99.90;;;;;;5052321;28;20526;-42
2022/10/23 10:54:51;;;;;;;8.63;2.80;;;14.70;99.90;;;;;;5055817;28;20053;-44
2022/10/23 10:57:29;;;;;;;7.82;2.50;;;14.90;99.90;;;;;;5056202;28;20088;-44
2022/10/23 11:00:03;;;;;;;6.82;2.80;;;14.90;99.90;;;;;;5055218;28;20017;-41
2022/10/23 11:02:41;;;;;;;6.03;2.20;;;15.00;99.90;;;;;;5055047;28;20025;-40
2022/10/23 11:05:14;;;;;;;5.10;2.45;;;15.10;99.90;;;;;;5055029;28;20082;-47
2022/10/23 11:07:50;;;;;;;5.88;2.58;;;15.30;99.90;;;;;;5055175;28;20108;-42
2022/10/23 11:10:17;;;;;;;5.28;2.17;;;15.30;99.90;;;;;;5055101;28;20507;-40
2022/10/23 11:12:45;;;;;;;12.90;2.80;;;15.40;99.90;;;;;;5073420;28;20024;-45
2022/10/23 11:15:16;;;;;;;9.32;2.60;;;15.50;99.90;;;;;;5063480;28;20034;-44
2022/10/23 11:17:47;;;;;;;3.35;2.17;;;15.70;99.90;;;;;;5079173;23;20040;-48
2022/10/23 11:20:42;;;;;;;6.03;3.15;;;15.80;99.90;;;;;;5074998;28;20017;-48
2022/10/23 11:23:32;;;;;;;21.38;13.70;;;16.00;99.90;;;;;;5074830;28;20090;-53
2022/10/23 11:26:22;;;;;;;28.52;19.77;;;16.10;99.90;;;;;;5074037;28;20768;-48
2022/10/23 11:29:09;;;;;;;4.90;2.70;;;16.40;99.90;;;;;;5054714;28;20029;-47
2022/10/23 11:32:06;;;;;;;4.03;2.10;;;16.50;99.90;;;;;;5054329;28;20032;-48
2022/10/23 11:34:59;;;;;;;12.95;2.90;;;16.50;99.90;;;;;;5054710;28;20025;-47
2022/10/23 11:37:25;;;;;;;2.10;1.90;;;16.60;99.90;;;;;;5054295;28;20032;-48
2022/10/23 11:40:06;;;;;;;10.48;2.10;;;16.70;99.90;;;;;;5054461;28;20068;-50
2022/10/23 11:42:38;;;;;;;4.93;2.70;;;16.70;99.90;;;;;;5053901;28;20025;-48
2022/10/23 11:45:25;;;;;;;6.95;2.40;;;16.80;99.90;;;;;;5053991;28;20025;-49
2022/10/23 11:48:02;;;;;;;4.78;2.25;;;16.80;99.90;;;;;;5053841;28;20036;-49
2022/10/23 11:50:48;;;;;;;4.47;2.08;;;16.90;99.90;;;;;;5052851;28;20404;-51
2022/10/23 11:53:32;;;;;;;5.55;2.00;;;17.10;99.90;;;;;;5053813;28;20080;-50
2022/10/23 11:56:25;;;;;;;3.22;1.80;;;17.30;99.90;;;;;;5054070;28;20021;-47
2022/10/23 11:58:54;;;;;;;4.00;2.00;;;17.30;99.90;;;;;;5053800;28;20056;-48
2022/10/23 12:01:42;;;;;;;6.50;1.85;;;17.40;99.90;;;;;;5053832;28;20048;-48
2022/10/23 12:04:17;;;;;;;5.28;1.83;;;17.40;99.90;;;;;;5053150;28;20028;-48
2022/10/23 12:06:58;;;;;;;3.97;1.70;;;17.40;99.90;;;;;;5053846;28;20025;-48
2022/10/23 12:09:26;;;;;;;6.20;3.08;;;17.40;99.90;;;;;;5053100;28;20025;-50
2022/10/23 12:12:07;;;;;;;6.20;2.25;;;17.40;99.90;;;;;;5053315;28;20121;-48
2022/10/23 12:14:48;;;;;;;3.92;2.15;;;17.30;99.90;;;;;;5053781;28;20033;-48
2022/10/23 12:17:22;;;;;;;8.73;2.30;;;17.20;99.90;;;;;;5053603;28;20037;-46
2022/10/23 12:19:51;;;;;;;4.65;2.63;;;17.20;99.90;;;;;;5053255;28;20039;-46
2022/10/23 12:22:19;;;;;;;4.05;1.92;;;17.10;99.90;;;;;;5053332;28;20114;-48
2022/10/23 12:25:01;;;;;;;3.42;1.88;;;17.10;99.90;;;;;;5052832;28;20025;-47
2022/10/23 12:27:46;;;;;;;3.88;2.38;;;17.10;99.90;;;;;;5052185;28;20021;-51
2022/10/23 12:30:22;;;;;;;6.53;2.50;;;17.20;99.90;;;;;;5052474;28;20021;-50
2022/10/23 12:33:06;;;;;;;4.68;2.00;;;17.30;99.90;;;;;;5052466;28;20493;-47
2022/10/23 12:35:38;;;;;;;7.60;2.05;;;17.20;99.90;;;;;;5052800;28;20037;-47
2022/10/23 12:38:18;;;;;;;2.55;1.80;;;17.20;99.90;;;;;;5050940;28;20021;-47
2022/10/23 12:40:49;;;;;;;5.15;1.90;;;17.30;99.90;;;;;;5050881;28;20032;-49
2022/10/23 12:43:25;;;;;;;4.97;1.73;;;17.30;99.90;;;;;;5051426;28;20116;-49
2022/10/23 12:45:53;;;;;;;3.03;1.95;;;17.20;99.90;;;;;;5052358;28;20036;-49
2022/10/23 12:48:21;;;;;;;5.07;2.00;;;17.20;99.90;;;;;;5051118;28;20025;-48
2022/10/23 12:50:52;;;;;;;9.23;1.83;;;17.20;99.90;;;;;;5052899;28;20043;-48
2022/10/23 12:53:19;;;;;;;9.65;1.95;;;17.20;99.90;;;;;;5052280;28;20028;-50
2022/10/23 12:55:50;;;;;;;4.32;2.10;;;17.20;99.90;;;;;;5052763;28;20021;-49
2022/10/23 12:58:29;;;;;;;7.78;2.05;;;17.40;99.90;;;;;;5052661;28;20025;-49
2022/10/23 13:01:00;;;;;;;9.77;1.92;;;17.40;99.90;;;;;;5053005;28;20021;-49
2022/10/23 13:03:27;;;;;;;3.55;1.70;;;17.40;99.90;;;;;;5051825;28;20373;-48
2022/10/23 13:05:57;;;;;;;4.22;1.90;;;17.50;99.90;;;;;;5049811;28;20078;-52